Flight Track Log - Related Links

Times and Time Zones

All times are in EDT time to prevent confusion due to time zone crossing. See the CCA4492 flight status page for this flight to view local times or setup timezone preferences in your user account.

Time Position Orientation Groundspeed Altitude Reporting Facility
EDT Latitude Longitude Course Direction KTS MPH feet Rate Location/Type
Tue 06:44:00 AM 32.5729 103.7167 174° South  Level Estimated
Tue 06:45:00 AM 32.5018 103.7250 174° South  Level Estimated
Tue 06:46:00 AM 32.4308 103.7334 174° South  Level Estimated
Tue 06:47:00 AM 32.3598 103.7418 174° South  Level Estimated
Tue 06:48:00 AM 32.2887 103.7501 174° South  Level Estimated
Tue 06:49:00 AM 32.2177 103.7584 174° South  Level Estimated
Tue 06:50:00 AM 32.1466 103.7667 174° South  Level Estimated
Tue 06:51:00 AM 32.0756 103.7750 174° South  Level Estimated
Tue 06:52:00 AM 32.0046 103.7833 174° South  Level Estimated
Tue 06:53:00 AM 31.9335 103.7916 174° South  Level Estimated
Tue 06:54:00 AM 31.8625 103.7999 174° South  Level Estimated
Tue 06:55:00 AM 31.7915 103.8081 174° South  Level Estimated
Tue 06:56:00 AM 31.7204 103.8164 174° South  Level Estimated
Tue 06:57:00 AM 31.6494 103.8246 174° South  Level Estimated
Tue 06:58:00 AM 31.5783 103.8328 174° South  Level Estimated
Tue 06:59:00 AM 31.5073 103.8410 174° South  Level Estimated
Tue 07:00:00 AM 31.4363 103.8492 174° South  Level Estimated
Tue 07:01:00 AM 31.3652 103.8574 174° South  Level Estimated
Tue 07:02:00 AM 31.2942 103.8655 174° South  Level Estimated
Tue 07:03:00 AM 31.2231 103.8737 174° South  Level Estimated
Tue 07:04:00 AM 31.1521 103.8818 174° South  Level Estimated
Tue 07:05:00 AM 31.0810 103.8900 174° South  Level Estimated
Tue 07:06:00 AM 31.0100 103.8981 174° South  Level Estimated
Tue 07:07:00 AM 30.9389 103.9062 174° South  Level Estimated
Tue 07:08:00 AM 30.8679 103.9143 174° South  Level Estimated
Tue 07:09:00 AM 30.7968 103.9223 174° South  Level Estimated
Tue 07:11:33 AM 30.6157 103.9429 174° South  Level Estimated
Tue 07:13:00 AM 30.5785 103.9471 174° South  Level Estimated
Tue 07:14:00 AM 30.5785 103.9471 240° Southwest  Level Estimated
Tue 07:15:00 AM 30.5785 103.9471 240° Southwest  Level Estimated
Tue 07:16:00 AM 30.5785 103.9471 240° Southwest  Level Estimated
Tue 07:17:00 AM 30.5785 103.9471 240° Southwest  Level Estimated
Tue 07:18:00 AM 30.5785 103.9471 240° Southwest  Level Estimated
Tue 07:19:00 AM 30.5785 103.9471 240° Southwest  Level Estimated
Tue 07:20:00 AM 30.5785 103.9471 240° Southwest  Level Estimated
Tue 07:21:00 AM 30.5785 103.9471 240° Southwest  Level Estimated
Tue 07:22:00 AM 30.5785 103.9471 240° Southwest  Level Estimated
Tue 07:23:00 AM 30.5785 103.9471 240° Southwest  Level Estimated
Tue 07:24:00 AM 30.5785 103.9471 240° Southwest  Level Estimated
Tue 07:25:00 AM 30.5785 103.9471 240° Southwest  Level Estimated
Tue 07:26:00 AM 30.5785 103.9471 240° Southwest  Level Estimated
Tue 07:27:00 AM 30.5785 103.9471 240° Southwest  Level Estimated

Login

Don't have an account? Register now (free) for customized features, flight alerts, and more!